sensor_id;sensor_type;location;lat;lon;timestamp;temperature;humidity
25628;DHT22;40915;50.826;4.356;2023-12-22T00:00:18;10.30;99.90
25628;DHT22;40915;50.826;4.356;2023-12-22T00:02:44;10.20;99.90
25628;DHT22;40915;50.826;4.356;2023-12-22T00:05:09;10.10;99.90
25628;DHT22;40915;50.826;4.356;2023-12-22T00:07:35;10.10;99.90
25628;DHT22;40915;50.826;4.356;2023-12-22T00:10:00;10.00;99.90
25628;DHT22;40915;50.826;4.356;2023-12-22T00:12:26;10.00;99.90
25628;DHT22;40915;50.826;4.356;2023-12-22T00:14:52;9.90;99.90
25628;DHT22;40915;50.826;4.356;2023-12-22T00:17:17;9.90;99.90
25628;DHT22;40915;50.826;4.356;2023-12-22T00:19:43;9.90;99.90
25628;DHT22;40915;50.826;4.356;2023-12-22T00:22:08;10.00;99.90
25628;DHT22;40915;50.826;4.356;2023-12-22T00:24:34;10.00;99.90
25628;DHT22;40915;50.826;4.356;2023-12-22T00:27:00;9.90;99.90
25628;DHT22;40915;50.826;4.356;2023-12-22T00:29:26;9.80;99.90
25628;DHT22;40915;50.826;4.356;2023-12-22T00:31:53;9.70;99.90
25628;DHT22;40915;50.826;4.356;2023-12-22T00:34:21;9.50;99.90
25628;DHT22;40915;50.826;4.356;2023-12-22T00:36:46;9.50;99.90
25628;DHT22;40915;50.826;4.356;2023-12-22T00:39:12;9.40;99.90
25628;DHT22;40915;50.826;4.356;2023-12-22T00:41:38;9.40;99.90
25628;DHT22;40915;50.826;4.356;2023-12-22T00:44:03;9.30;99.90
25628;DHT22;40915;50.826;4.356;2023-12-22T00:46:29;9.20;99.90
25628;DHT22;40915;50.826;4.356;2023-12-22T00:48:54;9.20;99.90
25628;DHT22;40915;50.826;4.356;2023-12-22T00:51:20;9.10;99.90
25628;DHT22;40915;50.826;4.356;2023-12-22T00:53:45;9.10;99.90
25628;DHT22;40915;50.826;4.356;2023-12-22T00:56:11;9.00;99.90
25628;DHT22;40915;50.826;4.356;2023-12-22T00:58:39;9.00;99.90
25628;DHT22;40915;50.826;4.356;2023-12-22T01:01:04;9.00;99.90
25628;DHT22;40915;50.826;4.356;2023-12-22T01:03:30;8.90;99.90
25628;DHT22;40915;50.826;4.356;2023-12-22T01:05:56;8.90;99.90
25628;DHT22;40915;50.826;4.356;2023-12-22T01:08:21;9.00;99.90
25628;DHT22;40915;50.826;4.356;2023-12-22T01:10:47;9.00;99.90
25628;DHT22;40915;50.826;4.356;2023-12-22T01:13:13;9.00;99.90
25628;DHT22;40915;50.826;4.356;2023-12-22T01:15:39;9.00;99.90
25628;DHT22;40915;50.826;4.356;2023-12-22T01:18:04;9.00;99.90
25628;DHT22;40915;50.826;4.356;2023-12-22T01:20:30;9.10;99.90
25628;DHT22;40915;50.826;4.356;2023-12-22T01:22:56;9.20;99.90
25628;DHT22;40915;50.826;4.356;2023-12-22T01:25:21;9.20;99.90
25628;DHT22;40915;50.826;4.356;2023-12-22T01:27:47;9.30;99.90
25628;DHT22;40915;50.826;4.356;2023-12-22T01:30:14;9.30;99.90
25628;DHT22;40915;50.826;4.356;2023-12-22T01:32:39;9.30;99.90
25628;DHT22;40915;50.826;4.356;2023-12-22T01:35:05;9.30;99.90
25628;DHT22;40915;50.826;4.356;2023-12-22T01:37:36;9.30;99.90
25628;DHT22;40915;50.826;4.356;2023-12-22T01:40:02;9.40;99.90
25628;DHT22;40915;50.826;4.356;2023-12-22T01:42:28;9.40;99.90
25628;DHT22;40915;50.826;4.356;2023-12-22T01:44:53;9.40;99.90
25628;DHT22;40915;50.826;4.356;2023-12-22T01:47:19;9.40;99.90
25628;DHT22;40915;50.826;4.356;2023-12-22T01:49:45;9.50;99.90
25628;DHT22;40915;50.826;4.356;2023-12-22T01:52:10;9.50;99.90
25628;DHT22;40915;50.826;4.356;2023-12-22T01:54:36;9.60;99.90
25628;DHT22;40915;50.826;4.356;2023-12-22T01:57:02;9.60;99.90
25628;DHT22;40915;50.826;4.356;2023-12-22T01:59:28;9.50;99.90
25628;DHT22;40915;50.826;4.356;2023-12-22T02:01:56;9.60;99.90
25628;DHT22;40915;50.826;4.356;2023-12-22T02:04:22;9.60;99.90
25628;DHT22;40915;50.826;4.356;2023-12-22T02:06:49;9.50;99.90
25628;DHT22;40915;50.826;4.356;2023-12-22T02:09:14;9.40;99.90
25628;DHT22;40915;50.826;4.356;2023-12-22T02:11:40;9.40;99.90
25628;DHT22;40915;50.826;4.356;2023-12-22T02:14:06;9.40;99.90
25628;DHT22;40915;50.826;4.356;2023-12-22T02:16:42;9.40;99.90
25628;DHT22;40915;50.826;4.356;2023-12-22T02:22:06;9.40;99.90
25628;DHT22;40915;50.826;4.356;2023-12-22T02:24:32;9.40;99.90
25628;DHT22;40915;50.826;4.356;2023-12-22T02:27:28;9.40;99.90
25628;DHT22;40915;50.826;4.356;2023-12-22T02:32:32;9.30;99.90
25628;DHT22;40915;50.826;4.356;2023-12-22T02:35:03;9.40;99.90
25628;DHT22;40915;50.826;4.356;2023-12-22T02:37:31;9.40;99.90
25628;DHT22;40915;50.826;4.356;2023-12-22T02:39:58;9.40;99.90
25628;DHT22;40915;50.826;4.356;2023-12-22T02:42:25;9.40;99.90
25628;DHT22;40915;50.826;4.356;2023-12-22T02:44:57;9.40;99.90
25628;DHT22;40915;50.826;4.356;2023-12-22T02:47:23;9.40;99.90
25628;DHT22;40915;50.826;4.356;2023-12-22T02:49:48;9.40;99.90
25628;DHT22;40915;50.826;4.356;2023-12-22T02:52:14;9.40;99.90
25628;DHT22;40915;50.826;4.356;2023-12-22T02:54:39;9.50;99.90
25628;DHT22;40915;50.826;4.356;2023-12-22T02:57:07;9.40;99.90
25628;DHT22;40915;50.826;4.356;2023-12-22T02:59:33;9.40;99.90
25628;DHT22;40915;50.826;4.356;2023-12-22T03:01:58;9.40;99.90
25628;DHT22;40915;50.826;4.356;2023-12-22T03:04:24;9.40;99.90
25628;DHT22;40915;50.826;4.356;2023-12-22T03:06:49;9.30;99.90
25628;DHT22;40915;50.826;4.356;2023-12-22T03:09:15;9.30;99.90
25628;DHT22;40915;50.826;4.356;2023-12-22T03:11:40;9.30;99.90
25628;DHT22;40915;50.826;4.356;2023-12-22T03:14:06;9.30;99.90
25628;DHT22;40915;50.826;4.356;2023-12-22T03:16:32;9.30;99.90
25628;DHT22;40915;50.826;4.356;2023-12-22T03:18:57;9.30;99.90
25628;DHT22;40915;50.826;4.356;2023-12-22T03:21:23;9.20;99.90
25628;DHT22;40915;50.826;4.356;2023-12-22T03:23:48;9.20;99.90
25628;DHT22;40915;50.826;4.356;2023-12-22T03:26:14;9.20;99.90
25628;DHT22;40915;50.826;4.356;2023-12-22T03:28:39;9.10;99.90
25628;DHT22;40915;50.826;4.356;2023-12-22T03:31:05;9.10;99.90
25628;DHT22;40915;50.826;4.356;2023-12-22T03:33:32;9.10;99.90
25628;DHT22;40915;50.826;4.356;2023-12-22T03:35:57;9.10;99.90
25628;DHT22;40915;50.826;4.356;2023-12-22T03:38:23;9.10;99.90
25628;DHT22;40915;50.826;4.356;2023-12-22T03:40:49;9.20;99.90
25628;DHT22;40915;50.826;4.356;2023-12-22T03:43:14;9.10;99.90
25628;DHT22;40915;50.826;4.356;2023-12-22T03:45:40;9.10;99.90
25628;DHT22;40915;50.826;4.356;2023-12-22T03:48:06;9.10;99.90
25628;DHT22;40915;50.826;4.356;2023-12-22T03:50:31;9.00;99.90
25628;DHT22;40915;50.826;4.356;2023-12-22T03:52:57;9.00;99.90
25628;DHT22;40915;50.826;4.356;2023-12-22T03:55:23;9.10;99.90
25628;DHT22;40915;50.826;4.356;2023-12-22T03:57:48;9.00;99.90
25628;DHT22;40915;50.826;4.356;2023-12-22T04:00:14;9.00;99.90
25628;DHT22;40915;50.826;4.356;2023-12-22T04:02:41;9.00;99.90
25628;DHT22;40915;50.826;4.356;2023-12-22T04:05:07;9.00;99.90
25628;DHT22;40915;50.826;4.356;2023-12-22T04:07:33;9.00;99.90
25628;DHT22;40915;50.826;4.356;2023-12-22T04:09:58;8.90;99.90
25628;DHT22;40915;50.826;4.356;2023-12-22T04:12:24;8.90;99.90
25628;DHT22;40915;50.826;4.356;2023-12-22T04:14:50;8.80;99.90
25628;DHT22;40915;50.826;4.356;2023-12-22T04:17:15;8.70;99.90
25628;DHT22;40915;50.826;4.356;2023-12-22T04:19:41;8.70;99.90
25628;DHT22;40915;50.826;4.356;2023-12-22T04:22:07;8.70;99.90
25628;DHT22;40915;50.826;4.356;2023-12-22T04:24:32;8.60;99.90
25628;DHT22;40915;50.826;4.356;2023-12-22T04:26:58;8.70;99.90
25628;DHT22;40915;50.826;4.356;2023-12-22T04:29:23;8.60;99.90
25628;DHT22;40915;50.826;4.356;2023-12-22T04:31:49;8.60;99.90
25628;DHT22;40915;50.826;4.356;2023-12-22T04:34:14;8.60;99.90
25628;DHT22;40915;50.826;4.356;2023-12-22T04:36:41;8.60;99.90
25628;DHT22;40915;50.826;4.356;2023-12-22T04:39:07;8.50;99.90
25628;DHT22;40915;50.826;4.356;2023-12-22T04:41:33;8.50;99.90
25628;DHT22;40915;50.826;4.356;2023-12-22T04:43:58;8.50;99.90
25628;DHT22;40915;50.826;4.356;2023-12-22T04:46:31;8.50;99.90
25628;DHT22;40915;50.826;4.356;2023-12-22T04:48:57;8.50;99.90
25628;DHT22;40915;50.826;4.356;2023-12-22T04:51:23;8.40;99.90
25628;DHT22;40915;50.826;4.356;2023-12-22T04:53:49;8.50;99.90
25628;DHT22;40915;50.826;4.356;2023-12-22T04:56:15;8.50;99.90
25628;DHT22;40915;50.826;4.356;2023-12-22T04:58:40;8.40;99.90
25628;DHT22;40915;50.826;4.356;2023-12-22T05:01:06;8.50;99.90
25628;DHT22;40915;50.826;4.356;2023-12-22T05:03:32;8.50;99.90
25628;DHT22;40915;50.826;4.356;2023-12-22T05:05:57;8.60;99.90
25628;DHT22;40915;50.826;4.356;2023-12-22T05:08:23;8.50;99.90
25628;DHT22;40915;50.826;4.356;2023-12-22T05:10:49;8.50;99.90
25628;DHT22;40915;50.826;4.356;2023-12-22T05:13:14;8.50;99.90
25628;DHT22;40915;50.826;4.356;2023-12-22T05:15:40;8.50;99.90
25628;DHT22;40915;50.826;4.356;2023-12-22T05:18:06;8.60;99.90
25628;DHT22;40915;50.826;4.356;2023-12-22T05:20:31;8.70;99.90
25628;DHT22;40915;50.826;4.356;2023-12-22T05:22:57;8.70;99.90
25628;DHT22;40915;50.826;4.356;2023-12-22T05:25:24;8.80;99.90
25628;DHT22;40915;50.826;4.356;2023-12-22T05:27:49;8.90;99.90
25628;DHT22;40915;50.826;4.356;2023-12-22T05:30:15;8.90;99.90
25628;DHT22;40915;50.826;4.356;2023-12-22T05:32:41;8.90;99.90
25628;DHT22;40915;50.826;4.356;2023-12-22T05:35:07;8.90;99.90
25628;DHT22;40915;50.826;4.356;2023-12-22T05:37:32;8.90;99.90
25628;DHT22;40915;50.826;4.356;2023-12-22T05:39:58;9.00;99.90
25628;DHT22;40915;50.826;4.356;2023-12-22T05:42:23;9.10;99.90
25628;DHT22;40915;50.826;4.356;2023-12-22T05:44:50;9.10;99.90
25628;DHT22;40915;50.826;4.356;2023-12-22T05:47:16;9.10;99.90
25628;DHT22;40915;50.826;4.356;2023-12-22T05:49:42;9.10;99.90
25628;DHT22;40915;50.826;4.356;2023-12-22T05:52:07;9.10;99.90
25628;DHT22;40915;50.826;4.356;2023-12-22T05:54:35;9.10;99.90
25628;DHT22;40915;50.826;4.356;2023-12-22T05:57:00;9.20;99.90
25628;DHT22;40915;50.826;4.356;2023-12-22T05:59:26;9.20;99.90
25628;DHT22;40915;50.826;4.356;2023-12-22T06:01:56;9.20;99.90
25628;DHT22;40915;50.826;4.356;2023-12-22T06:04:21;9.20;99.90
25628;DHT22;40915;50.826;4.356;2023-12-22T06:06:47;9.20;99.90
25628;DHT22;40915;50.826;4.356;2023-12-22T06:09:12;9.20;99.90
25628;DHT22;40915;50.826;4.356;2023-12-22T06:11:39;9.30;99.90
25628;DHT22;40915;50.826;4.356;2023-12-22T06:14:05;9.30;99.90
25628;DHT22;40915;50.826;4.356;2023-12-22T06:16:31;9.30;99.90
25628;DHT22;40915;50.826;4.356;2023-12-22T06:18:57;9.40;99.90
25628;DHT22;40915;50.826;4.356;2023-12-22T06:21:22;9.40;99.90
25628;DHT22;40915;50.826;4.356;2023-12-22T06:23:48;9.30;99.90
25628;DHT22;40915;50.826;4.356;2023-12-22T06:26:14;9.40;99.90
25628;DHT22;40915;50.826;4.356;2023-12-22T06:28:39;9.40;99.90
25628;DHT22;40915;50.826;4.356;2023-12-22T06:31:06;9.30;99.90
25628;DHT22;40915;50.826;4.356;2023-12-22T06:33:32;9.40;99.90
25628;DHT22;40915;50.826;4.356;2023-12-22T06:35:58;9.40;99.90
25628;DHT22;40915;50.826;4.356;2023-12-22T06:38:23;9.40;99.90
25628;DHT22;40915;50.826;4.356;2023-12-22T06:40:49;9.40;99.90
25628;DHT22;40915;50.826;4.356;2023-12-22T06:43:16;9.40;99.90
25628;DHT22;40915;50.826;4.356;2023-12-22T06:45:41;9.50;99.90
25628;DHT22;40915;50.826;4.356;2023-12-22T06:48:07;9.40;99.90
25628;DHT22;40915;50.826;4.356;2023-12-22T06:50:35;9.50;99.90
25628;DHT22;40915;50.826;4.356;2023-12-22T06:53:02;9.40;99.90
25628;DHT22;40915;50.826;4.356;2023-12-22T06:55:28;9.40;99.90
25628;DHT22;40915;50.826;4.356;2023-12-22T06:57:55;9.40;99.90
25628;DHT22;40915;50.826;4.356;2023-12-22T07:00:21;9.40;99.90
25628;DHT22;40915;50.826;4.356;2023-12-22T07:02:46;9.40;99.90
25628;DHT22;40915;50.826;4.356;2023-12-22T07:07:47;9.50;99.90
25628;DHT22;40915;50.826;4.356;2023-12-22T07:10:12;9.40;99.90
25628;DHT22;40915;50.826;4.356;2023-12-22T07:12:38;9.40;99.90
25628;DHT22;40915;50.826;4.356;2023-12-22T07:15:07;9.40;99.90
25628;DHT22;40915;50.826;4.356;2023-12-22T07:17:33;9.40;99.90
25628;DHT22;40915;50.826;4.356;2023-12-22T07:19:59;9.40;99.90
25628;DHT22;40915;50.826;4.356;2023-12-22T07:22:24;9.40;99.90
25628;DHT22;40915;50.826;4.356;2023-12-22T07:24:50;9.50;99.90
25628;DHT22;40915;50.826;4.356;2023-12-22T07:27:18;9.60;99.90
25628;DHT22;40915;50.826;4.356;2023-12-22T07:29:43;9.60;99.90
25628;DHT22;40915;50.826;4.356;2023-12-22T07:32:09;9.70;99.90
25628;DHT22;40915;50.826;4.356;2023-12-22T07:34:35;9.70;99.90
25628;DHT22;40915;50.826;4.356;2023-12-22T07:37:01;9.70;99.90
25628;DHT22;40915;50.826;4.356;2023-12-22T07:39:26;9.70;99.90
25628;DHT22;40915;50.826;4.356;2023-12-22T07:41:52;9.60;99.90
25628;DHT22;40915;50.826;4.356;2023-12-22T07:44:17;9.60;99.90
25628;DHT22;40915;50.826;4.356;2023-12-22T07:46:43;9.60;99.90
25628;DHT22;40915;50.826;4.356;2023-12-22T07:49:09;9.70;99.90
25628;DHT22;40915;50.826;4.356;2023-12-22T07:51:34;9.70;99.90
25628;DHT22;40915;50.826;4.356;2023-12-22T07:54:00;9.70;99.90
25628;DHT22;40915;50.826;4.356;2023-12-22T07:56:26;9.70;99.90
25628;DHT22;40915;50.826;4.356;2023-12-22T07:58:51;9.70;99.90
25628;DHT22;40915;50.826;4.356;2023-12-22T08:01:17;9.70;99.90
25628;DHT22;40915;50.826;4.356;2023-12-22T08:03:42;9.70;99.90
25628;DHT22;40915;50.826;4.356;2023-12-22T08:06:08;9.70;99.90
25628;DHT22;40915;50.826;4.356;2023-12-22T08:08:33;9.70;99.90
25628;DHT22;40915;50.826;4.356;2023-12-22T08:11:00;9.80;99.90
25628;DHT22;40915;50.826;4.356;2023-12-22T08:13:25;9.70;99.90
25628;DHT22;40915;50.826;4.356;2023-12-22T08:15:51;9.70;99.90
25628;DHT22;40915;50.826;4.356;2023-12-22T08:18:17;9.70;99.90
25628;DHT22;40915;50.826;4.356;2023-12-22T08:20:42;9.70;99.90
25628;DHT22;40915;50.826;4.356;2023-12-22T08:23:08;9.60;99.90
25628;DHT22;40915;50.826;4.356;2023-12-22T08:25:34;9.70;99.90
25628;DHT22;40915;50.826;4.356;2023-12-22T08:27:59;9.70;99.90
25628;DHT22;40915;50.826;4.356;2023-12-22T08:30:26;9.70;99.90
25628;DHT22;40915;50.826;4.356;2023-12-22T08:32:52;9.70;99.90
25628;DHT22;40915;50.826;4.356;2023-12-22T08:35:19;9.70;99.90
25628;DHT22;40915;50.826;4.356;2023-12-22T08:37:44;9.60;99.90
25628;DHT22;40915;50.826;4.356;2023-12-22T08:40:10;9.60;99.90
25628;DHT22;40915;50.826;4.356;2023-12-22T08:42:36;9.60;99.90
25628;DHT22;40915;50.826;4.356;2023-12-22T08:45:01;9.60;99.90
25628;DHT22;40915;50.826;4.356;2023-12-22T08:47:28;9.60;99.90
25628;DHT22;40915;50.826;4.356;2023-12-22T08:49:53;9.60;99.90
25628;DHT22;40915;50.826;4.356;2023-12-22T08:52:19;9.60;99.90
25628;DHT22;40915;50.826;4.356;2023-12-22T08:54:45;9.60;99.90
25628;DHT22;40915;50.826;4.356;2023-12-22T08:57:10;9.70;99.90
25628;DHT22;40915;50.826;4.356;2023-12-22T08:59:36;9.70;99.90
25628;DHT22;40915;50.826;4.356;2023-12-22T09:02:02;9.70;99.90
25628;DHT22;40915;50.826;4.356;2023-12-22T09:04:27;9.70;99.90
25628;DHT22;40915;50.826;4.356;2023-12-22T09:06:53;9.80;99.90
25628;DHT22;40915;50.826;4.356;2023-12-22T09:09:19;9.80;99.90
25628;DHT22;40915;50.826;4.356;2023-12-22T09:11:46;9.80;99.90
25628;DHT22;40915;50.826;4.356;2023-12-22T09:14:12;9.90;99.90
25628;DHT22;40915;50.826;4.356;2023-12-22T09:16:38;9.80;99.90
25628;DHT22;40915;50.826;4.356;2023-12-22T09:19:04;9.90;99.90
25628;DHT22;40915;50.826;4.356;2023-12-22T09:21:29;9.80;99.90
25628;DHT22;40915;50.826;4.356;2023-12-22T09:23:55;9.80;99.90
25628;DHT22;40915;50.826;4.356;2023-12-22T09:26:21;9.90;99.90
25628;DHT22;40915;50.826;4.356;2023-12-22T09:28:47;10.00;99.90
25628;DHT22;40915;50.826;4.356;2023-12-22T09:31:13;10.00;99.90
25628;DHT22;40915;50.826;4.356;2023-12-22T09:33:40;10.00;99.90
25628;DHT22;40915;50.826;4.356;2023-12-22T09:36:07;10.00;99.90
25628;DHT22;40915;50.826;4.356;2023-12-22T09:38:32;10.10;99.90
25628;DHT22;40915;50.826;4.356;2023-12-22T09:40:58;10.10;99.90
25628;DHT22;40915;50.826;4.356;2023-12-22T09:43:24;10.20;99.90
25628;DHT22;40915;50.826;4.356;2023-12-22T09:45:50;10.20;99.90
25628;DHT22;40915;50.826;4.356;2023-12-22T09:48:21;10.20;99.90
25628;DHT22;40915;50.826;4.356;2023-12-22T09:50:53;10.20;99.90
25628;DHT22;40915;50.826;4.356;2023-12-22T09:53:20;10.20;99.90
25628;DHT22;40915;50.826;4.356;2023-12-22T09:55:46;10.30;99.90
25628;DHT22;40915;50.826;4.356;2023-12-22T09:58:15;10.30;99.90
25628;DHT22;40915;50.826;4.356;2023-12-22T10:00:43;10.40;99.90
25628;DHT22;40915;50.826;4.356;2023-12-22T10:03:10;10.30;99.90
25628;DHT22;40915;50.826;4.356;2023-12-22T10:05:37;10.30;99.90
25628;DHT22;40915;50.826;4.356;2023-12-22T10:08:04;10.30;99.90
25628;DHT22;40915;50.826;4.356;2023-12-22T10:10:30;10.30;99.90
25628;DHT22;40915;50.826;4.356;2023-12-22T10:12:56;10.30;99.90
25628;DHT22;40915;50.826;4.356;2023-12-22T10:15:23;10.30;99.90
25628;DHT22;40915;50.826;4.356;2023-12-22T10:17:55;10.30;99.90
25628;DHT22;40915;50.826;4.356;2023-12-22T10:20:21;10.30;99.90
25628;DHT22;40915;50.826;4.356;2023-12-22T10:22:47;10.40;99.90
25628;DHT22;40915;50.826;4.356;2023-12-22T10:25:20;10.40;99.90
25628;DHT22;40915;50.826;4.356;2023-12-22T10:27:46;10.40;99.90
25628;DHT22;40915;50.826;4.356;2023-12-22T10:30:12;10.40;99.90
25628;DHT22;40915;50.826;4.356;2023-12-22T10:32:41;10.40;99.90
25628;DHT22;40915;50.826;4.356;2023-12-22T10:35:10;10.40;99.90
25628;DHT22;40915;50.826;4.356;2023-12-22T10:37:35;10.30;99.90
25628;DHT22;40915;50.826;4.356;2023-12-22T10:40:04;10.30;99.90
25628;DHT22;40915;50.826;4.356;2023-12-22T10:42:31;10.30;99.90
25628;DHT22;40915;50.826;4.356;2023-12-22T10:44:57;10.30;99.90
25628;DHT22;40915;50.826;4.356;2023-12-22T10:47:23;10.20;99.90
25628;DHT22;40915;50.826;4.356;2023-12-22T10:49:49;10.30;99.90
25628;DHT22;40915;50.826;4.356;2023-12-22T10:52:18;10.30;99.90
25628;DHT22;40915;50.826;4.356;2023-12-22T10:54:44;10.20;99.90
25628;DHT22;40915;50.826;4.356;2023-12-22T10:57:11;10.20;99.90
25628;DHT22;40915;50.826;4.356;2023-12-22T10:59:40;10.30;99.90
25628;DHT22;40915;50.826;4.356;2023-12-22T11:02:15;10.30;99.90
25628;DHT22;40915;50.826;4.356;2023-12-22T11:04:42;10.30;99.90
25628;DHT22;40915;50.826;4.356;2023-12-22T11:07:14;10.20;99.90
25628;DHT22;40915;50.826;4.356;2023-12-22T11:09:42;10.20;99.90
25628;DHT22;40915;50.826;4.356;2023-12-22T11:12:10;10.20;99.90
25628;DHT22;40915;50.826;4.356;2023-12-22T11:14:37;10.10;99.90
25628;DHT22;40915;50.826;4.356;2023-12-22T11:17:05;10.20;99.90
25628;DHT22;40915;50.826;4.356;2023-12-22T11:19:33;10.10;99.90
25628;DHT22;40915;50.826;4.356;2023-12-22T11:22:01;10.10;99.90
25628;DHT22;40915;50.826;4.356;2023-12-22T11:24:29;10.10;99.90
25628;DHT22;40915;50.826;4.356;2023-12-22T11:26:58;10.10;99.90
25628;DHT22;40915;50.826;4.356;2023-12-22T11:29:26;10.20;99.90
25628;DHT22;40915;50.826;4.356;2023-12-22T11:31:54;10.10;99.90
25628;DHT22;40915;50.826;4.356;2023-12-22T11:34:21;10.20;99.90
25628;DHT22;40915;50.826;4.356;2023-12-22T11:36:48;10.20;99.90
25628;DHT22;40915;50.826;4.356;2023-12-22T11:39:15;10.30;99.90
25628;DHT22;40915;50.826;4.356;2023-12-22T11:41:42;10.30;99.90
25628;DHT22;40915;50.826;4.356;2023-12-22T11:44:09;10.30;99.90
25628;DHT22;40915;50.826;4.356;2023-12-22T11:46:35;10.40;99.90
25628;DHT22;40915;50.826;4.356;2023-12-22T11:49:01;10.50;99.90
25628;DHT22;40915;50.826;4.356;2023-12-22T11:51:32;10.50;99.90
25628;DHT22;40915;50.826;4.356;2023-12-22T11:54:00;10.50;99.90
25628;DHT22;40915;50.826;4.356;2023-12-22T11:56:25;10.50;99.90
25628;DHT22;40915;50.826;4.356;2023-12-22T11:58:52;10.50;99.90
25628;DHT22;40915;50.826;4.356;2023-12-22T12:01:21;10.60;99.90
25628;DHT22;40915;50.826;4.356;2023-12-22T12:04:00;10.60;99.90
25628;DHT22;40915;50.826;4.356;2023-12-22T12:09:06;10.60;99.90
25628;DHT22;40915;50.826;4.356;2023-12-22T12:14:22;10.70;99.90
25628;DHT22;40915;50.826;4.356;2023-12-22T12:17:00;10.70;99.90
25628;DHT22;40915;50.826;4.356;2023-12-22T12:19:29;10.80;99.90
25628;DHT22;40915;50.826;4.356;2023-12-22T12:21:55;10.80;99.90
25628;DHT22;40915;50.826;4.356;2023-12-22T12:24:20;10.80;99.90
25628;DHT22;40915;50.826;4.356;2023-12-22T12:26:46;10.80;99.90
25628;DHT22;40915;50.826;4.356;2023-12-22T12:29:12;10.90;99.90
25628;DHT22;40915;50.826;4.356;2023-12-22T12:31:37;10.90;99.90
25628;DHT22;40915;50.826;4.356;2023-12-22T12:34:04;10.90;99.90
25628;DHT22;40915;50.826;4.356;2023-12-22T12:36:31;11.00;99.90
25628;DHT22;40915;50.826;4.356;2023-12-22T12:39:08;11.00;99.90
25628;DHT22;40915;50.826;4.356;2023-12-22T12:41:42;11.10;99.90
25628;DHT22;40915;50.826;4.356;2023-12-22T12:44:11;11.00;99.90
25628;DHT22;40915;50.826;4.356;2023-12-22T12:46:38;11.00;99.90
25628;DHT22;40915;50.826;4.356;2023-12-22T12:49:11;11.00;99.90
25628;DHT22;40915;50.826;4.356;2023-12-22T12:51:38;11.00;99.90
25628;DHT22;40915;50.826;4.356;2023-12-22T12:54:07;11.00;99.90
25628;DHT22;40915;50.826;4.356;2023-12-22T12:56:44;11.00;99.90
25628;DHT22;40915;50.826;4.356;2023-12-22T12:59:10;11.00;99.90
25628;DHT22;40915;50.826;4.356;2023-12-22T13:01:43;11.00;99.90
25628;DHT22;40915;50.826;4.356;2023-12-22T13:04:09;10.90;99.90
25628;DHT22;40915;50.826;4.356;2023-12-22T13:06:45;10.90;99.90
25628;DHT22;40915;50.826;4.356;2023-12-22T13:09:15;11.00;99.90
25628;DHT22;40915;50.826;4.356;2023-12-22T13:11:42;10.90;99.90
25628;DHT22;40915;50.826;4.356;2023-12-22T13:14:12;10.90;99.90
25628;DHT22;40915;50.826;4.356;2023-12-22T13:16:47;10.90;99.90
25628;DHT22;40915;50.826;4.356;2023-12-22T13:19:13;10.90;99.90
25628;DHT22;40915;50.826;4.356;2023-12-22T13:21:39;10.80;99.90
25628;DHT22;40915;50.826;4.356;2023-12-22T13:24:09;10.80;99.90
25628;DHT22;40915;50.826;4.356;2023-12-22T13:26:36;10.80;99.90
25628;DHT22;40915;50.826;4.356;2023-12-22T13:29:02;10.90;99.90
25628;DHT22;40915;50.826;4.356;2023-12-22T13:31:31;10.80;99.90
25628;DHT22;40915;50.826;4.356;2023-12-22T13:33:58;10.80;99.90
25628;DHT22;40915;50.826;4.356;2023-12-22T13:36:24;10.90;99.90
25628;DHT22;40915;50.826;4.356;2023-12-22T13:38:50;10.90;99.90
25628;DHT22;40915;50.826;4.356;2023-12-22T13:41:16;10.90;99.90
25628;DHT22;40915;50.826;4.356;2023-12-22T13:43:42;10.90;99.90
25628;DHT22;40915;50.826;4.356;2023-12-22T13:46:10;11.00;99.90
25628;DHT22;40915;50.826;4.356;2023-12-22T13:48:36;11.00;99.90
25628;DHT22;40915;50.826;4.356;2023-12-22T13:51:02;11.00;99.90
25628;DHT22;40915;50.826;4.356;2023-12-22T13:53:29;11.10;99.90
25628;DHT22;40915;50.826;4.356;2023-12-22T13:55:58;11.00;99.90
25628;DHT22;40915;50.826;4.356;2023-12-22T13:58:24;11.00;99.90
25628;DHT22;40915;50.826;4.356;2023-12-22T14:00:50;11.00;99.90
25628;DHT22;40915;50.826;4.356;2023-12-22T14:03:16;11.00;99.90
25628;DHT22;40915;50.826;4.356;2023-12-22T14:05:43;10.90;99.90
25628;DHT22;40915;50.826;4.356;2023-12-22T14:08:09;10.90;99.90
25628;DHT22;40915;50.826;4.356;2023-12-22T14:10:34;10.80;99.90
25628;DHT22;40915;50.826;4.356;2023-12-22T14:13:00;10.70;99.90
25628;DHT22;40915;50.826;4.356;2023-12-22T14:15:25;10.70;99.90
25628;DHT22;40915;50.826;4.356;2023-12-22T14:17:54;10.80;99.90
25628;DHT22;40915;50.826;4.356;2023-12-22T14:20:21;10.80;99.90
25628;DHT22;40915;50.826;4.356;2023-12-22T14:22:46;10.80;99.90
25628;DHT22;40915;50.826;4.356;2023-12-22T14:25:12;10.80;99.90
25628;DHT22;40915;50.826;4.356;2023-12-22T14:27:38;10.80;99.90
25628;DHT22;40915;50.826;4.356;2023-12-22T14:30:04;10.80;99.90
25628;DHT22;40915;50.826;4.356;2023-12-22T14:32:30;10.90;99.90
25628;DHT22;40915;50.826;4.356;2023-12-22T14:34:55;10.80;99.90
25628;DHT22;40915;50.826;4.356;2023-12-22T14:37:21;10.90;99.90
25628;DHT22;40915;50.826;4.356;2023-12-22T14:39:47;10.90;99.90
25628;DHT22;40915;50.826;4.356;2023-12-22T14:42:13;10.90;99.90
25628;DHT22;40915;50.826;4.356;2023-12-22T14:44:39;10.90;99.90
25628;DHT22;40915;50.826;4.356;2023-12-22T14:47:06;11.00;99.90
25628;DHT22;40915;50.826;4.356;2023-12-22T14:49:31;11.00;99.90
25628;DHT22;40915;50.826;4.356;2023-12-22T14:51:57;11.00;99.90
25628;DHT22;40915;50.826;4.356;2023-12-22T14:54:25;11.00;99.90
25628;DHT22;40915;50.826;4.356;2023-12-22T14:56:51;11.10;99.90
25628;DHT22;40915;50.826;4.356;2023-12-22T14:59:17;11.10;99.90
25628;DHT22;40915;50.826;4.356;2023-12-22T15:01:43;11.10;99.90
25628;DHT22;40915;50.826;4.356;2023-12-22T15:04:09;11.10;99.90
25628;DHT22;40915;50.826;4.356;2023-12-22T15:06:41;11.10;99.90
25628;DHT22;40915;50.826;4.356;2023-12-22T15:09:09;11.10;99.90
25628;DHT22;40915;50.826;4.356;2023-12-22T15:11:41;11.10;99.90
25628;DHT22;40915;50.826;4.356;2023-12-22T15:14:07;11.20;99.90
25628;DHT22;40915;50.826;4.356;2023-12-22T15:16:33;11.20;99.90
25628;DHT22;40915;50.826;4.356;2023-12-22T15:18:58;11.20;99.90
25628;DHT22;40915;50.826;4.356;2023-12-22T15:21:24;11.20;99.90
25628;DHT22;40915;50.826;4.356;2023-12-22T15:23:50;11.20;99.90
25628;DHT22;40915;50.826;4.356;2023-12-22T15:26:23;11.20;99.90
25628;DHT22;40915;50.826;4.356;2023-12-22T15:28:51;11.20;99.90
25628;DHT22;40915;50.826;4.356;2023-12-22T15:31:17;11.20;99.90
25628;DHT22;40915;50.826;4.356;2023-12-22T15:33:43;11.20;99.90
25628;DHT22;40915;50.826;4.356;2023-12-22T15:36:08;11.10;99.90
25628;DHT22;40915;50.826;4.356;2023-12-22T15:38:34;11.20;99.90
25628;DHT22;40915;50.826;4.356;2023-12-22T15:41:03;11.20;99.90
25628;DHT22;40915;50.826;4.356;2023-12-22T15:43:29;11.20;99.90
25628;DHT22;40915;50.826;4.356;2023-12-22T15:45:55;11.20;99.90
25628;DHT22;40915;50.826;4.356;2023-12-22T15:48:21;11.20;99.90